Time;durP1;ratioP1;P1;durP2;ratioP2;P2;SDS_P1;SDS_P2;PMS_P1;PMS_P2;Temp;Humidity;BMP_temperature;BMP_pressure;BME280_temperature;BME280_humidity;BME280_pressure;Samples;Min_cycle;Max_cycle;Signal;HPM_P1;HPM_P2
2023/10/19 00:02:53;;;;;;;61.43;26.03;;;;;;;4.97;100.00;100158.97;4885740;59;1140756;-69
2023/10/19 00:08:05;;;;;;;56.93;24.20;;;;;;;4.97;100.00;100161.59;4866089;59;1140939;-74
2023/10/19 00:13:08;;;;;;;48.53;20.73;;;;;;;4.94;100.00;100149.50;4883728;57;1141024;-85
2023/10/19 00:18:24;;;;;;;51.85;22.82;;;;;;;4.91;100.00;100141.36;4928582;58;1140993;-74
2023/10/19 00:23:28;;;;;;;37.17;17.53;;;;;;;4.79;100.00;100136.02;4784874;59;1141125;-80
2023/10/19 00:28:35;;;;;;;31.63;16.77;;;;;;;4.75;100.00;100131.42;4938321;57;1141023;-84
2023/10/19 00:33:41;;;;;;;32.03;14.73;;;;;;;4.73;100.00;100118.06;4976978;57;1140940;-83
2023/10/19 00:44:10;;;;;;;35.93;14.97;;;;;;;4.72;100.00;100095.42;4944193;56;1143105;-78
2023/10/19 00:49:16;;;;;;;25.07;14.87;;;;;;;4.69;100.00;100083.81;4987805;57;1140840;-72
2023/10/19 00:54:51;;;;;;;28.90;14.93;;;;;;;4.64;100.00;100076.22;5013761;58;1141198;-78
2023/10/19 01:00:11;;;;;;;30.85;15.75;;;;;;;4.56;100.00;100071.45;4932166;57;1141086;-82
2023/10/19 01:05:08;;;;;;;26.23;13.50;;;;;;;4.53;100.00;100050.69;4914616;58;1141011;-80
2023/10/19 01:10:20;;;;;;;24.40;13.78;;;;;;;4.53;100.00;100050.69;4928166;58;1141620;-70
2023/10/19 01:15:29;;;;;;;33.17;14.40;;;;;;;4.56;100.00;100039.19;4912747;57;1140958;-79
2023/10/19 01:20:42;;;;;;;27.57;15.67;;;;;;;4.59;100.00;100025.88;4909782;57;1143035;-71
2023/10/19 01:31:06;;;;;;;32.80;19.30;;;;;;;4.76;100.00;100008.67;4921768;57;1150389;-75
2023/10/19 01:36:12;;;;;;;34.80;16.87;;;;;;;4.78;100.00;99993.70;4911565;57;1140810;-74
2023/10/19 01:41:20;;;;;;;30.92;16.15;;;;;;;4.83;100.00;99980.33;4790263;59;1138857;-74
2023/10/19 01:46:29;;;;;;;32.10;17.33;;;;;;;4.90;100.00;99972.44;4997090;58;1140962;-73
2023/10/19 01:51:39;;;;;;;34.40;19.20;;;;;;;4.96;100.00;99966.83;4983738;57;1138894;-79
2023/10/19 01:56:45;;;;;;;28.63;17.87;;;;;;;4.98;100.00;99953.16;4986226;57;1138932;-76
2023/10/19 02:01:51;;;;;;;38.77;17.90;;;;;;;5.00;100.00;99936.03;4810276;60;1138896;-77
2023/10/19 02:07:00;;;;;;;32.23;18.20;;;;;;;5.03;100.00;99930.13;4910787;57;1140962;-84
2023/10/19 02:12:06;;;;;;;32.80;18.37;;;;;;;5.11;100.00;99924.38;4910998;57;1138976;-70
2023/10/19 02:17:11;;;;;;;35.55;17.80;;;;;;;5.13;100.00;99914.17;4808188;59;1139059;-73
2023/10/19 02:22:17;;;;;;;27.43;16.37;;;;;;;5.16;100.00;99913.98;4878663;57;1138953;-67
2023/10/19 02:27:22;;;;;;;32.57;17.63;;;;;;;5.22;100.00;99898.30;4904844;58;1140835;-80
2023/10/19 02:32:28;;;;;;;39.70;20.10;;;;;;;5.26;100.00;99898.48;4932315;57;1138830;-75
2023/10/19 02:37:34;;;;;;;36.17;18.93;;;;;;;5.25;100.00;99888.47;4791630;60;1138953;-72
2023/10/19 02:42:40;;;;;;;32.93;18.65;;;;;;;5.23;100.00;99879.86;4921969;57;1138980;-72
2023/10/19 02:47:47;;;;;;;29.30;17.57;;;;;;;5.24;100.00;99871.52;5008999;57;1138761;-81
2023/10/19 02:52:54;;;;;;;33.97;18.47;;;;;;;5.28;100.00;99876.47;4985958;58;1141105;-81
2023/10/19 02:57:59;;;;;;;37.47;20.47;;;;;;;5.29;100.00;99871.60;4961255;57;1138969;-80
2023/10/19 03:03:06;;;;;;;38.23;19.60;;;;;;;5.29;100.00;99859.80;4809666;60;1139330;-78
2023/10/19 03:08:15;;;;;;;32.83;19.02;;;;;;;5.26;100.00;99847.36;4906456;57;1139229;-73
2023/10/19 03:13:21;;;;;;;35.07;19.60;;;;;;;5.28;100.00;99846.80;4792292;58;1141082;-76
2023/10/19 03:18:28;;;;;;;43.67;22.13;;;;;;;5.28;100.00;99857.28;4817197;57;1138849;-72
2023/10/19 03:23:34;;;;;;;36.07;19.97;;;;;;;5.24;100.00;99846.15;4799234;58;1138857;-69
2023/10/19 03:28:40;;;;;;;39.38;20.27;;;;;;;5.23;100.00;99833.98;4908821;58;1138732;-84
2023/10/19 03:33:54;;;;;;;37.33;21.03;;;;;;;5.25;100.00;99826.02;4811216;60;1141123;-74
2023/10/19 03:38:56;;;;;;;42.43;21.60;;;;;;;5.26;100.00;99832.94;4790205;58;1138869;-79
2023/10/19 03:44:03;;;;;;;42.17;20.33;;;;;;;5.25;100.00;99819.46;4807339;59;1138969;-72
2023/10/19 03:49:13;;;;;;;30.28;17.82;;;;;;;5.23;100.00;99806.92;4809072;59;1139047;-78
2023/10/19 03:54:21;;;;;;;34.78;18.76;;;;;;;5.22;100.00;99799.53;4778992;59;1141231;-69
2023/10/19 03:59:33;;;;;;;32.10;18.57;;;;;;;5.22;100.00;99788.20;4745910;59;1138943;-66
2023/10/19 04:04:47;;;;;;;34.23;18.67;;;;;;;5.23;100.00;99776.78;4708698;59;1139002;-69
2023/10/19 04:25:29;;;;;;;33.10;18.57;;;;;;;5.29;100.00;99747.06;4928825;58;1138814;-75
2023/10/19 04:30:36;;;;;;;42.67;20.30;;;;;;;5.36;100.00;99742.70;4791202;60;1141051;-73
2023/10/19 04:35:42;;;;;;;40.20;21.68;;;;;;;5.38;100.00;99750.83;4905809;57;1138753;-65
2023/10/19 04:40:47;;;;;;;39.53;19.30;;;;;;;5.38;100.00;99744.75;4808091;60;1139690;-72
2023/10/19 04:45:53;;;;;;;34.30;18.20;;;;;;;5.36;100.00;99731.73;4983906;58;1138820;-72
2023/10/19 04:50:58;;;;;;;38.97;19.97;;;;;;;5.36;100.00;99725.18;4991904;58;1140926;-72
2023/10/19 04:56:08;;;;;;;38.23;21.30;;;;;;;5.34;100.00;99706.13;5014615;57;1138984;-75
2023/10/19 05:01:14;;;;;;;37.90;19.30;;;;;;;5.34;100.00;99715.77;4797564;59;1138622;-78
2023/10/19 05:06:22;;;;;;;32.78;19.85;;;;;;;5.35;100.00;99713.02;4909073;57;1138940;-70
2023/10/19 05:11:28;;;;;;;31.23;18.00;;;;;;;5.39;100.00;99711.87;4828189;59;1140835;-71
2023/10/19 05:16:34;;;;;;;35.97;18.80;;;;;;;5.42;100.00;99712.13;4715766;60;1138979;-67
2023/10/19 05:21:40;;;;;;;33.92;18.57;;;;;;;5.41;100.00;99709.14;4721755;60;1139025;-65
2023/10/19 05:26:46;;;;;;;34.25;18.07;;;;;;;5.43;100.00;99697.61;4729615;60;1138775;-73
2023/10/19 05:31:57;;;;;;;41.37;20.03;;;;;;;5.48;100.00;99698.61;4719679;60;1141880;-68
2023/10/19 05:37:05;;;;;;;38.40;20.73;;;;;;;5.47;100.00;99691.22;4722810;60;1139083;-75
2023/10/19 05:42:10;;;;;;;37.73;18.07;;;;;;;5.47;100.00;99686.44;4930559;57;1148680;-71
2023/10/19 05:47:16;;;;;;;41.75;20.10;;;;;;;5.51;100.00;99694.44;4985727;58;1140963;-72
2023/10/19 05:52:22;;;;;;;39.35;20.00;;;;;;;5.54;100.00;99695.06;4991659;57;1140878;-68
2023/10/19 05:57:28;;;;;;;36.43;18.50;;;;;;;5.55;100.00;99696.75;4994191;57;1138597;-81
2023/10/19 06:02:34;;;;;;;31.00;16.33;;;;;;;5.58;100.00;99704.88;4908363;58;1138753;-71
2023/10/19 06:07:40;;;;;;;32.90;19.83;;;;;;;5.60;100.00;99699.89;4901919;57;1140678;-74
2023/10/19 06:12:50;;;;;;;53.03;24.90;;;;;;;5.62;100.00;99707.19;4908483;57;1139678;-72
2023/10/19 06:17:56;;;;;;;38.47;19.33;;;;;;;5.63;100.00;99696.23;4784018;58;1139099;-75
2023/10/19 06:23:07;;;;;;;28.93;16.77;;;;;;;5.67;100.00;99708.16;4912591;58;1139025;-75
2023/10/19 06:28:11;;;;;;;36.07;17.63;;;;;;;5.71;100.00;99701.75;4809431;59;1140967;-73
2023/10/19 06:33:16;;;;;;;31.95;19.10;;;;;;;5.74;100.00;99703.33;4794233;58;1139452;-70
2023/10/19 06:38:22;;;;;;;38.20;18.27;;;;;;;5.76;100.00;99697.50;4789999;59;1139015;-75
2023/10/19 06:43:29;;;;;;;32.77;17.63;;;;;;;5.78;100.00;99698.23;4814081;59;1139050;-83
2023/10/19 06:48:35;;;;;;;39.37;23.60;;;;;;;5.82;100.00;99688.70;4765142;59;1140996;-77
2023/10/19 06:53:41;;;;;;;40.93;21.63;;;;;;;5.88;100.00;99675.63;4774537;59;1138888;-73
2023/10/19 06:58:47;;;;;;;33.27;18.60;;;;;;;5.92;100.00;99671.41;4751576;59;1138739;-77
2023/10/19 07:03:53;;;;;;;28.07;16.50;;;;;;;5.98;100.00;99676.67;4767094;60;1138785;-76
2023/10/19 07:08:59;;;;;;;35.70;19.25;;;;;;;6.04;100.00;99664.43;4735249;59;1141090;-75
2023/10/19 07:14:07;;;;;;;33.43;17.80;;;;;;;6.08;100.00;99651.92;4929307;58;1138922;-75
2023/10/19 07:19:12;;;;;;;32.60;16.47;;;;;;;6.11;100.00;99643.84;4906815;58;1139558;-76
2023/10/19 07:24:19;;;;;;;29.40;15.80;;;;;;;6.16;100.00;99633.81;4791784;60;1138840;-82
2023/10/19 07:29:25;;;;;;;33.02;17.92;;;;;;;6.23;100.00;99630.64;4927512;57;1141164;-81
2023/10/19 07:34:35;;;;;;;37.03;18.27;;;;;;;6.28;100.00;99620.61;4790264;60;1139026;-77
2023/10/19 07:39:42;;;;;;;28.73;16.37;;;;;;;6.34;100.00;99609.66;4906636;58;1139065;-71
2023/10/19 07:44:48;;;;;;;26.17;16.13;;;;;;;6.44;100.00;99605.86;4811071;59;1140899;-75
2023/10/19 07:49:56;;;;;;;30.33;16.90;;;;;;;6.57;100.00;99605.80;4914597;57;1140875;-71
2023/10/19 07:55:02;;;;;;;28.50;16.70;;;;;;;6.64;100.00;99597.33;4792513;57;1138870;-74
2023/10/19 08:00:10;;;;;;;29.87;13.20;;;;;;;6.70;100.00;99581.11;4809774;59;1139674;-76
2023/10/19 08:05:22;;;;;;;22.25;13.70;;;;;;;6.80;100.00;99568.08;4735903;59;1139100;-72
2023/10/19 08:10:25;;;;;;;33.63;17.03;;;;;;;6.95;100.00;99546.34;4788879;59;1140905;-72
2023/10/19 08:15:31;;;;;;;33.18;14.75;;;;;;;6.95;100.00;99546.34;4900093;58;1140935;-73
2023/10/19 08:20:37;;;;;;;34.53;16.23;;;;;;;7.07;100.00;99554.58;4922216;57;1138903;-74
2023/10/19 08:25:44;;;;;;;25.80;13.80;;;;;;;7.12;100.00;99543.23;4866976;56;1138872;-79
2023/10/19 08:31:05;;;;;;;24.77;14.30;;;;;;;7.18;100.00;99536.16;4866920;59;1141150;-69
2023/10/19 08:36:06;;;;;;;31.63;15.23;;;;;;;7.26;100.00;99529.83;4897879;58;1140914;-67
2023/10/19 08:41:12;;;;;;;29.63;17.00;;;;;;;7.32;100.00;99520.63;4787639;59;1138790;-74
2023/10/19 08:46:17;;;;;;;25.83;14.67;;;;;;;7.38;100.00;99528.84;4761018;59;1138771;-79
2023/10/19 08:51:25;;;;;;;28.90;15.13;;;;;;;7.48;100.00;99525.01;4916388;57;1141821;-76
2023/10/19 08:56:30;;;;;;;36.13;22.03;;;;;;;7.56;100.00;99523.06;4656902;60;1140924;-74
2023/10/19 09:01:36;;;;;;;41.73;21.33;;;;;;;7.61;100.00;99519.59;4864535;58;1138929;-76
2023/10/19 09:06:42;;;;;;;32.63;18.65;;;;;;;7.65;100.00;99531.52;4793819;60;1139004;-79
2023/10/19 09:11:53;;;;;;;23.23;16.53;;;;;;;7.71;100.00;99535.81;4809207;60;1138910;-73
2023/10/19 09:17:00;;;;;;;37.90;17.00;;;;;;;7.81;100.00;99537.20;4793332;58;1141112;-74
2023/10/19 09:22:25;;;;;;;25.93;15.90;;;;;;;7.89;100.00;99528.69;4908224;58;1141001;-79
2023/10/19 09:27:21;;;;;;;31.90;16.33;;;;;;;7.94;100.00;99510.73;4748596;60;1138981;-77
2023/10/19 09:32:27;;;;;;;23.32;14.60;;;;;;;8.05;100.00;99511.50;4729136;60;1138984;-76
2023/10/19 09:37:33;;;;;;;26.57;16.80;;;;;;;8.24;100.00;99502.06;4881605;57;1140883;-76
2023/10/19 09:42:48;;;;;;;34.83;16.32;;;;;;;8.36;100.00;99484.77;4728308;59;1141415;-72
2023/10/19 09:47:56;;;;;;;26.27;15.60;;;;;;;8.42;100.00;99476.81;4892557;58;1141199;-72
2023/10/19 09:53:04;;;;;;;22.17;15.33;;;;;;;8.44;100.00;99467.81;4872446;57;1139935;-74
2023/10/19 09:58:18;;;;;;;26.47;16.53;;;;;;;8.43;100.00;99463.98;4736647;59;1138881;-71
2023/10/19 10:03:51;;;;;;;27.48;14.47;;;;;;;8.44;100.00;99466.97;4894427;57;1139211;-77
2023/10/19 10:08:59;;;;;;;25.30;14.57;;;;;;;8.52;100.00;99473.76;4762786;60;1141332;-80
2023/10/19 10:14:09;;;;;;;20.20;13.77;;;;;;;8.60;100.00;99470.45;4735547;60;1141118;-78
2023/10/19 10:19:19;;;;;;;23.07;14.28;;;;;;;8.66;100.00;99454.95;4733994;60;1146514;-77
2023/10/19 10:24:27;;;;;;;23.10;14.75;;;;;;;8.73;100.00;99443.38;4724063;60;1139338;-79
2023/10/19 10:29:32;;;;;;;22.00;13.97;;;;;;;8.77;100.00;99445.62;4782315;59;1139110;-73
2023/10/19 10:34:43;;;;;;;23.85;14.53;;;;;;;8.80;100.00;99446.68;4714506;60;1138932;-76
2023/10/19 10:39:48;;;;;;;28.20;17.23;;;;;;;8.83;100.00;99458.77;4716747;61;1138784;-77
2023/10/19 10:44:55;;;;;;;35.13;18.30;;;;;;;8.85;100.00;99442.33;4701703;60;1139233;-78
2023/10/19 10:50:03;;;;;;;29.07;18.70;;;;;;;8.88;100.00;99434.12;4706590;60;1138846;-76
2023/10/19 10:55:14;;;;;;;40.00;24.30;;;;;;;8.93;100.00;99427.97;4723753;60;1141593;-74
2023/10/19 11:00:22;;;;;;;28.42;16.55;;;;;;;9.02;100.00;99422.36;4772819;59;1141786;-72
2023/10/19 11:05:28;;;;;;;28.47;14.30;;;;;;;9.06;100.00;99416.69;4895932;58;1141013;-76
2023/10/19 11:10:34;;;;;;;29.03;17.10;;;;;;;9.09;100.00;99416.42;4885481;58;1146564;-76
2023/10/19 11:15:54;;;;;;;32.57;18.40;;;;;;;9.09;99.46;99388.73;4808464;59;1141086;-74
2023/10/19 11:21:04;;;;;;;27.53;18.73;;;;;;;9.12;99.26;99364.72;4907251;56;1136634;-75
2023/10/19 11:26:09;;;;;;;26.57;15.57;;;;;;;9.15;100.00;99367.56;4958833;56;1136734;-73
2023/10/19 11:31:18;;;;;;;22.17;14.77;;;;;;;9.16;99.57;99354.24;4907039;57;1138797;-71
2023/10/19 11:36:24;;;;;;;29.35;17.17;;;;;;;9.14;98.98;99361.95;4895703;57;1136782;-77
2023/10/19 11:41:30;;;;;;;33.03;19.43;;;;;;;9.13;99.29;99360.27;4899638;58;1137623;-81
2023/10/19 11:46:36;;;;;;;26.50;18.73;;;;;;;9.11;100.00;99353.81;4830880;60;1136944;-73
2023/10/19 11:51:41;;;;;;;27.23;16.63;;;;;;;9.10;99.74;99349.52;4863946;58;1138808;-71
2023/10/19 11:56:49;;;;;;;31.30;17.30;;;;;;;9.09;100.00;99335.14;4911819;57;1136605;-75
2023/10/19 12:01:54;;;;;;;29.67;16.43;;;;;;;9.11;100.00;99338.48;4786721;59;1140954;-73
2023/10/19 12:07:09;;;;;;;30.17;19.80;;;;;;;9.09;99.39;99326.73;4920433;57;1141015;-78
2023/10/19 12:12:31;;;;;;;31.70;17.30;;;;;;;9.09;100.00;99314.87;4880334;58;1138876;-75
2023/10/19 12:17:37;;;;;;;34.80;18.92;;;;;;;9.06;100.00;99315.14;4747174;58;1140904;-79
2023/10/19 12:22:43;;;;;;;43.30;22.50;;;;;;;9.06;100.00;99306.40;4724577;60;1139516;-77
2023/10/19 12:27:49;;;;;;;28.00;17.20;;;;;;;9.04;100.00;99295.15;4748148;59;1138823;-86
2023/10/19 12:32:54;;;;;;;33.20;16.60;;;;;;;9.01;100.00;99280.95;4742034;59;1138855;-79
2023/10/19 12:38:00;;;;;;;51.83;24.40;;;;;;;8.98;100.00;99270.19;4765241;59;1141020;-72
2023/10/19 12:43:07;;;;;;;31.93;17.00;;;;;;;9.00;100.00;99285.39;4747648;59;1141262;-79
2023/10/19 12:48:13;;;;;;;51.53;27.70;;;;;;;9.01;100.00;99269.88;4844849;57;1141014;-76
2023/10/19 12:53:18;;;;;;;40.60;25.27;;;;;;;9.05;100.00;99264.69;4933770;58;1138842;-70
2023/10/19 12:58:24;;;;;;;33.30;20.95;;;;;;;9.08;100.00;99255.66;4787028;59;1138911;-80
2023/10/19 13:03:32;;;;;;;36.50;22.30;;;;;;;9.09;100.00;99266.08;4904259;57;1138855;-77
2023/10/19 13:08:38;;;;;;;25.08;16.55;;;;;;;9.09;100.00;99266.56;4906111;57;1139004;-73
2023/10/19 13:13:43;;;;;;;34.75;20.05;;;;;;;9.12;100.00;99260.53;4930731;57;1140685;-77
2023/10/19 13:18:49;;;;;;;28.93;19.97;;;;;;;9.13;100.00;99259.56;4947876;56;1140915;-74
2023/10/19 13:23:55;;;;;;;35.17;20.63;;;;;;;9.11;100.00;99248.31;4985131;56;1141252;-73
2023/10/19 13:29:01;;;;;;;35.17;22.13;;;;;;;9.11;100.00;99235.12;4938142;57;1141043;-74
2023/10/19 13:34:10;;;;;;;38.93;23.20;;;;;;;9.10;100.00;99250.60;4858766;59;1140856;-78
2023/10/19 13:39:16;;;;;;;35.40;24.33;;;;;;;9.11;100.00;99255.39;4860078;57;1138702;-81
2023/10/19 13:44:23;;;;;;;31.37;19.32;;;;;;;9.09;100.00;99251.57;4921884;57;1138672;-75
2023/10/19 13:49:29;;;;;;;37.95;21.42;;;;;;;9.11;100.00;99252.27;4917851;58;1140893;-79
2023/10/19 13:54:34;;;;;;;35.67;21.43;;;;;;;9.10;100.00;99247.97;4979331;57;1140890;-80
2023/10/19 13:59:40;;;;;;;43.40;25.37;;;;;;;9.08;100.00;99242.48;4979924;57;1141321;-81
2023/10/19 14:04:46;;;;;;;38.30;22.80;;;;;;;9.06;100.00;99219.36;4999358;57;1141048;-78
2023/10/19 14:09:52;;;;;;;41.20;20.97;;;;;;;9.02;100.00;99218.81;4979879;57;1138825;-76
2023/10/19 14:14:58;;;;;;;60.30;33.50;;;;;;;9.02;100.00;99225.40;4957749;57;1141094;-73
2023/10/19 14:20:05;;;;;;;46.93;27.70;;;;;;;8.99;100.00;99223.06;4753091;59;1142020;-75
2023/10/19 14:25:12;;;;;;;58.28;32.67;;;;;;;8.97;100.00;99214.95;4719367;59;1141052;-83
2023/10/19 14:30:24;;;;;;;34.20;22.27;;;;;;;8.92;100.00;99196.07;4641053;60;1138861;-74
2023/10/19 14:35:29;;;;;;;49.13;22.45;;;;;;;8.90;100.00;99198.01;4654977;60;1140827;-75
2023/10/19 14:40:35;;;;;;;27.67;17.53;;;;;;;8.92;100.00;99200.02;4709686;60;1140568;-76
2023/10/19 14:45:43;;;;;;;30.40;18.73;;;;;;;8.90;100.00;99187.46;4707509;60;1141011;-77
2023/10/19 14:50:50;;;;;;;26.47;15.70;;;;;;;8.88;100.00;99192.87;4727408;60;1140978;-76
2023/10/19 14:55:59;;;;;;;78.50;33.07;;;;;;;8.86;100.00;99203.24;4909975;57;1139360;-74
2023/10/19 15:01:06;;;;;;;85.57;43.33;;;;;;;8.86;100.00;99204.05;4789899;59;1141539;-78
2023/10/19 15:06:14;;;;;;;59.70;34.37;;;;;;;8.86;100.00;99191.38;4808205;60;1140679;-85
2023/10/19 15:11:21;;;;;;;46.83;22.80;;;;;;;8.85;100.00;99190.55;4953604;56;1141067;-75
2023/10/19 15:16:27;;;;;;;53.77;27.47;;;;;;;8.83;100.00;99179.79;4871943;57;1140918;-79
2023/10/19 15:21:32;;;;;;;81.32;34.95;;;;;;;8.77;100.00;99184.64;4869136;56;1139107;-78
2023/10/19 15:26:40;;;;;;;59.33;29.40;;;;;;;8.77;100.00;99190.39;4785239;59;1140933;-78
2023/10/19 15:31:45;;;;;;;42.40;25.77;;;;;;;8.76;100.00;99195.32;4719510;59;1140971;-75
2023/10/19 15:36:51;;;;;;;38.43;22.33;;;;;;;8.73;100.00;99181.09;4728251;60;1140977;-80
2023/10/19 15:41:57;;;;;;;36.25;20.62;;;;;;;8.70;100.00;99165.09;4933772;57;1140963;-72
2023/10/19 15:47:09;;;;;;;38.10;23.93;;;;;;;8.65;100.00;99156.77;4895961;57;1140882;-68
2023/10/19 15:52:10;;;;;;;44.77;25.60;;;;;;;8.65;100.00;99156.77;4908788;57;1140977;-74
2023/10/19 15:57:16;;;;;;;40.92;24.60;;;;;;;8.65;100.00;99171.27;4820665;60;1140751;-71
2023/10/19 16:02:22;;;;;;;42.03;25.25;;;;;;;8.62;100.00;99172.02;4712558;59;1141015;-78
2023/10/19 16:07:28;;;;;;;45.75;25.20;;;;;;;8.61;100.00;99172.51;4959209;57;1140749;-82
2023/10/19 16:12:34;;;;;;;53.42;28.80;;;;;;;8.63;100.00;99180.28;4959465;57;1141087;-75
2023/10/19 16:17:40;;;;;;;73.87;40.73;;;;;;;8.61;100.00;99179.09;4933267;56;1140987;-85
2023/10/19 16:22:46;;;;;;;101.23;54.20;;;;;;;8.58;100.00;99176.73;4910114;57;1140980;-74
2023/10/19 16:27:52;;;;;;;53.50;31.53;;;;;;;8.54;100.00;99174.05;4785375;58;1143136;-83
2023/10/19 16:32:57;;;;;;;71.73;39.97;;;;;;;8.54;100.00;99178.00;4912359;57;1141428;-71
2023/10/19 16:38:03;;;;;;;58.23;30.10;;;;;;;8.57;100.00;99179.50;4795569;58;1141004;-72
2023/10/19 16:43:12;;;;;;;50.67;26.67;;;;;;;8.58;100.00;99178.53;4790478;57;1141226;-72
2023/10/19 16:48:17;;;;;;;49.47;25.07;;;;;;;8.58;100.00;99195.66;4858300;58;1141003;-83
2023/10/19 16:53:23;;;;;;;38.58;21.42;;;;;;;8.56;100.00;99189.70;4822234;59;1138850;-73
2023/10/19 16:58:29;;;;;;;45.35;23.20;;;;;;;8.57;100.00;99185.61;4903812;58;1140981;-66
2023/10/19 17:03:35;;;;;;;48.23;25.30;;;;;;;8.57;100.00;99185.61;4757157;58;1141196;-83
2023/10/19 17:08:42;;;;;;;47.97;26.50;;;;;;;8.57;100.00;99175.55;4834931;59;1140986;-76
2023/10/19 17:13:52;;;;;;;56.87;33.43;;;;;;;8.55;100.00;99157.76;4873008;58;1141035;-84
2023/10/19 17:18:55;;;;;;;50.77;28.53;;;;;;;8.51;100.00;99165.59;4913303;57;1140728;-76
2023/10/19 17:24:00;;;;;;;61.57;31.80;;;;;;;8.51;100.00;99169.05;4809050;60;1140991;-78
2023/10/19 17:29:06;;;;;;;66.03;37.53;;;;;;;8.49;100.00;99164.41;4790335;59;1140914;-68
2023/10/19 17:34:12;;;;;;;84.47;44.07;;;;;;;8.44;100.00;99162.66;4789443;60;1141002;-68
2023/10/19 17:39:18;;;;;;;76.82;42.03;;;;;;;8.43;100.00;99163.14;4916576;57;1141036;-68
2023/10/19 17:44:24;;;;;;;45.85;26.68;;;;;;;8.39;100.00;99159.14;4913076;57;1141047;-66
2023/10/19 17:49:30;;;;;;;38.80;21.87;;;;;;;8.33;100.00;99148.31;4791453;58;1141339;-68
2023/10/19 17:54:35;;;;;;;52.90;27.07;;;;;;;8.27;100.00;99147.50;4791601;57;1141665;-73
2023/10/19 17:59:41;;;;;;;76.30;33.40;;;;;;;8.25;100.00;99148.16;4913980;57;1140835;-76
2023/10/19 18:04:49;;;;;;;49.90;27.27;;;;;;;8.19;100.00;99137.67;4818434;58;1140925;-78
2023/10/19 18:09:54;;;;;;;45.27;24.20;;;;;;;8.15;100.00;99132.33;4851154;58;1140894;-73
2023/10/19 18:15:01;;;;;;;48.30;29.18;;;;;;;8.11;100.00;99138.83;4918723;57;1140830;-78
2023/10/19 18:20:09;;;;;;;51.93;27.60;;;;;;;8.03;100.00;99141.33;4790747;59;1140718;-75
2023/10/19 18:25:16;;;;;;;35.70;22.20;;;;;;;8.00;100.00;99135.02;4789852;59;1141163;-69
2023/10/19 18:30:22;;;;;;;31.77;19.90;;;;;;;7.92;100.00;99138.83;4923984;57;1141252;-80
2023/10/19 18:35:28;;;;;;;40.83;20.88;;;;;;;7.87;100.00;99137.91;4786650;60;1140873;-80
2023/10/19 18:40:35;;;;;;;38.33;24.70;;;;;;;7.81;100.00;99134.48;4907453;58;1141070;-78
2023/10/19 18:45:40;;;;;;;38.85;23.95;;;;;;;7.76;100.00;99148.55;4790508;59;1141011;-73
2023/10/19 18:50:58;;;;;;;33.63;19.53;;;;;;;7.74;100.00;99154.43;4924896;57;1141044;-77
2023/10/19 18:56:08;;;;;;;34.17;22.10;;;;;;;7.71;100.00;99144.17;4762299;58;1140960;-73
2023/10/19 19:01:14;;;;;;;31.07;20.77;;;;;;;7.64;100.00;99140.39;4730751;58;1141026;-78
2023/10/19 19:06:21;;;;;;;34.30;22.17;;;;;;;7.60;100.00;99133.76;4840891;58;1141221;-76
2023/10/19 19:11:26;;;;;;;34.33;22.13;;;;;;;7.56;100.00;99135.81;4791514;59;1141076;-83
2023/10/19 19:16:32;;;;;;;30.23;19.60;;;;;;;7.54;100.00;99134.28;4915584;57;1141092;-74
2023/10/19 19:21:40;;;;;;;40.58;23.27;;;;;;;7.51;100.00;99113.02;4788914;59;1140901;-77
2023/10/19 19:26:45;;;;;;;39.00;22.13;;;;;;;7.49;100.00;99095.21;4921925;57;1141011;-78
2023/10/19 19:31:51;;;;;;;27.37;18.70;;;;;;;7.45;100.00;99087.27;4867238;58;1141085;-79
2023/10/19 19:36:56;;;;;;;32.17;20.50;;;;;;;7.44;100.00;99092.17;4893652;57;1141004;-71
2023/10/19 19:42:02;;;;;;;40.37;21.87;;;;;;;7.38;100.00;99088.27;4808806;59;1140948;-78
2023/10/19 19:47:07;;;;;;;35.13;23.27;;;;;;;7.36;100.00;99099.88;4898772;58;1140914;-69
2023/10/19 19:52:13;;;;;;;30.13;18.87;;;;;;;7.30;100.00;99095.17;4759070;59;1140903;-69
2023/10/19 19:57:19;;;;;;;38.17;24.23;;;;;;;7.26;100.00;99097.23;4750126;59;1140558;-78
2023/10/19 20:02:24;;;;;;;32.40;22.90;;;;;;;7.29;100.00;99098.77;4821982;58;1140773;-76
2023/10/19 20:07:30;;;;;;;35.68;24.87;;;;;;;7.33;100.00;99097.54;4820495;58;1141243;-74
2023/10/19 20:12:43;;;;;;;33.80;23.25;;;;;;;7.32;100.00;99094.56;4842297;57;1140981;-78
2023/10/19 20:17:48;;;;;;;38.93;24.27;;;;;;;7.32;100.00;99095.39;4921045;57;1140849;-72
2023/10/19 20:22:57;;;;;;;32.80;21.03;;;;;;;7.33;100.00;99080.45;4794405;59;1141028;-77
2023/10/19 20:28:04;;;;;;;26.27;18.53;;;;;;;7.27;100.00;99080.97;4801327;58;1140988;-73
2023/10/19 20:33:11;;;;;;;33.90;23.23;;;;;;;7.23;100.00;99082.19;4814026;60;1141045;-68
2023/10/19 20:38:19;;;;;;;38.60;24.30;;;;;;;7.22;100.00;99072.63;4905324;57;1140915;-67
2023/10/19 20:43:23;;;;;;;37.97;23.83;;;;;;;7.22;100.00;99048.48;4791859;59;1140976;-74
2023/10/19 20:48:29;;;;;;;27.32;18.60;;;;;;;7.19;100.00;99051.38;4974950;57;1141612;-75
2023/10/19 20:53:35;;;;;;;27.77;17.73;;;;;;;7.20;100.00;99045.16;4985696;57;1140674;-75
2023/10/19 20:58:40;;;;;;;23.57;17.50;;;;;;;7.19;100.00;99040.86;4965506;57;1141215;-73
2023/10/19 21:03:46;;;;;;;21.17;15.50;;;;;;;7.19;100.00;99048.75;4793651;59;1140907;-73
2023/10/19 21:08:52;;;;;;;32.40;19.03;;;;;;;7.20;100.00;99034.64;4732727;60;1141061;-75
2023/10/19 21:13:57;;;;;;;18.50;13.27;;;;;;;7.18;100.00;99018.67;4734735;59;1141292;-78
2023/10/19 21:19:03;;;;;;;16.27;12.23;;;;;;;7.19;100.00;99023.77;4749098;58;1141167;-81
2023/10/19 21:24:09;;;;;;;15.93;11.13;;;;;;;7.11;100.00;99027.56;4857469;57;1141051;-75
2023/10/19 21:29:14;;;;;;;14.27;10.77;;;;;;;7.05;100.00;99027.61;4742783;60;1141088;-73
2023/10/19 21:34:20;;;;;;;14.40;10.23;;;;;;;6.99;100.00;99020.75;4789018;59;1141050;-70
2023/10/19 21:39:26;;;;;;;13.47;9.37;;;;;;;6.95;100.00;99008.35;4790534;59;1141365;-73
2023/10/19 21:44:33;;;;;;;17.17;10.43;;;;;;;6.90;100.00;99003.13;4797490;59;1138872;-73
2023/10/19 21:49:40;;;;;;;14.13;10.95;;;;;;;6.85;100.00;99002.72;4790002;58;1141227;-70
2023/10/19 21:54:45;;;;;;;16.77;11.03;;;;;;;6.81;100.00;98997.37;4765081;59;1140959;-77
2023/10/19 21:59:51;;;;;;;14.63;10.43;;;;;;;6.79;100.00;98990.93;4746418;59;1140893;-78
2023/10/19 22:04:56;;;;;;;15.53;10.83;;;;;;;6.74;100.00;98990.97;4750771;59;1140973;-75
2023/10/19 22:10:04;;;;;;;21.30;12.37;;;;;;;6.70;100.00;98978.59;4798213;59;1141122;-74
2023/10/19 22:15:11;;;;;;;18.43;12.57;;;;;;;6.69;100.00;98976.45;4701577;60;1141056;-73
2023/10/19 22:20:18;;;;;;;21.03;13.10;;;;;;;6.67;100.00;98989.37;4775899;59;1141054;-76
2023/10/19 22:25:23;;;;;;;23.13;13.03;;;;;;;6.63;100.00;98986.16;4792685;58;1140804;-76
2023/10/19 22:30:29;;;;;;;18.17;11.43;;;;;;;6.64;100.00;98997.02;4777694;58;1141905;-77
2023/10/19 22:35:37;;;;;;;22.17;12.33;;;;;;;6.69;100.00;99008.45;4884106;58;1140839;-75
2023/10/19 22:40:44;;;;;;;19.77;12.90;;;;;;;6.70;100.00;99012.75;4880833;58;1141171;-72
2023/10/19 22:45:51;;;;;;;20.67;12.83;;;;;;;6.66;100.00;99016.11;4744567;58;1140914;-77
2023/10/19 22:50:57;;;;;;;15.90;11.47;;;;;;;6.65;100.00;99019.70;4747133;59;1140897;-76
2023/10/19 22:56:02;;;;;;;16.83;11.27;;;;;;;6.63;100.00;99014.22;4789855;60;1140876;-69
2023/10/19 23:01:09;;;;;;;19.87;11.63;;;;;;;6.60;100.00;99005.28;4750326;60;1140689;-71
2023/10/19 23:06:15;;;;;;;18.67;10.90;;;;;;;6.52;100.00;98991.98;4750003;59;1140971;-76
2023/10/19 23:11:26;;;;;;;13.27;9.17;;;;;;;6.54;100.00;98988.27;4790245;59;1141268;-80
2023/10/19 23:16:35;;;;;;;18.25;8.58;;;;;;;6.53;100.00;98983.98;4996693;57;1139055;-75
2023/10/19 23:21:37;;;;;;;13.55;10.05;;;;;;;6.50;100.00;98984.72;4979089;57;1138999;-72
2023/10/19 23:26:48;;;;;;;9.20;7.20;;;;;;;6.46;100.00;98972.32;4979954;57;1140971;-75